Time;durP1;ratioP1;P1;durP2;ratioP2;P2;SDS_P1;SDS_P2;PMS_P1;PMS_P2;Temp;Humidity;BMP_temperature;BMP_pressure;BME280_temperature;BME280_humidity;BME280_pressure;Samples;Min_cycle;Max_cycle;Signal;HPM_P1;HPM_P2
2023/03/26 00:00:44;;;;;;;4.00;3.40;;;;;;;;;;4963974;28;20069;-63
2023/03/26 00:03:11;;;;;;;3.65;3.35;;;;;;;;;;4961895;28;20033;-63
2023/03/26 00:05:38;;;;;;;5.88;3.65;;;;;;;;;;4963371;28;20031;-63
2023/03/26 00:08:04;;;;;;;4.32;3.20;;;;;;;;;;4963259;28;20043;-63
2023/03/26 00:10:29;;;;;;;4.03;3.20;;;;;;;;;;4963120;28;20042;-64
2023/03/26 00:12:55;;;;;;;7.45;3.80;;;;;;;;;;4960702;28;20058;-64
2023/03/26 00:15:21;;;;;;;6.22;3.58;;;;;;;;;;4964506;28;20031;-64
2023/03/26 00:17:46;;;;;;;5.00;3.50;;;;;;;;;;4982941;28;20796;-62
2023/03/26 00:20:13;;;;;;;4.80;3.30;;;;;;;;;;4967030;28;20371;-62
2023/03/26 00:22:40;;;;;;;3.85;3.55;;;;;;;;;;4966142;28;20061;-64
2023/03/26 00:25:06;;;;;;;4.32;3.70;;;;;;;;;;4966902;28;20485;-62
2023/03/26 00:27:33;;;;;;;4.25;3.60;;;;;;;;;;4971347;28;20062;-61
2023/03/26 00:29:59;;;;;;;4.00;3.40;;;;;;;;;;4969160;28;20174;-62
2023/03/26 00:32:29;;;;;;;4.00;3.13;;;;;;;;;;4960696;28;20046;-60
2023/03/26 00:34:56;;;;;;;8.15;3.50;;;;;;;;;;4968583;28;20042;-62
2023/03/26 00:37:25;;;;;;;3.70;3.40;;;;;;;;;;4970648;28;20514;-63
2023/03/26 00:39:58;;;;;;;3.30;3.00;;;;;;;;;;4966099;28;20050;-63
2023/03/26 00:42:25;;;;;;;5.60;3.22;;;;;;;;;;4948004;28;20045;-61
2023/03/26 00:44:54;;;;;;;3.22;3.03;;;;;;;;;;4964658;28;20737;-63
2023/03/26 00:47:21;;;;;;;4.45;3.33;;;;;;;;;;4967514;28;20038;-62
2023/03/26 00:49:47;;;;;;;3.75;3.40;;;;;;;;;;4964987;28;20501;-63
2023/03/26 00:52:17;;;;;;;4.70;3.45;;;;;;;;;;4963635;28;20043;-62
2023/03/26 00:54:44;;;;;;;3.35;3.15;;;;;;;;;;4982992;28;20038;-63
2023/03/26 00:57:11;;;;;;;4.72;3.00;;;;;;;;;;4963980;28;20038;-62
2023/03/26 00:59:38;;;;;;;5.38;3.72;;;;;;;;;;4965186;28;20038;-63
2023/03/26 01:02:05;;;;;;;3.35;3.13;;;;;;;;;;4970793;28;20109;-62
2023/03/26 01:04:33;;;;;;;3.90;3.10;;;;;;;;;;4965561;28;20473;-62
2023/03/26 01:07:03;;;;;;;3.65;3.35;;;;;;;;;;4929865;28;20169;-63
2023/03/26 01:09:36;;;;;;;4.00;3.00;;;;;;;;;;4962752;28;20117;-62
2023/03/26 01:12:05;;;;;;;7.07;3.30;;;;;;;;;;4964849;28;20066;-62
2023/03/26 01:14:32;;;;;;;6.00;3.08;;;;;;;;;;4961837;28;20043;-62
2023/03/26 01:17:00;;;;;;;3.30;3.00;;;;;;;;;;4961338;28;20113;-62
2023/03/26 01:19:44;;;;;;;6.53;3.50;;;;;;;;;;4963628;28;20097;-62
2023/03/26 01:22:16;;;;;;;4.45;2.92;;;;;;;;;;4963309;28;20578;-63
2023/03/26 01:24:44;;;;;;;3.30;3.10;;;;;;;;;;4962702;28;20042;-62
2023/03/26 01:27:20;;;;;;;3.75;3.17;;;;;;;;;;4962905;28;20117;-62
2023/03/26 01:29:54;;;;;;;6.90;3.15;;;;;;;;;;4962930;28;20126;-63
2023/03/26 01:32:45;;;;;;;3.50;3.20;;;;;;;;;;4959709;28;20058;-62
2023/03/26 01:35:35;;;;;;;3.17;2.97;;;;;;;;;;4961722;28;20120;-62
2023/03/26 01:38:12;;;;;;;4.90;3.42;;;;;;;;;;4960376;28;20181;-63
2023/03/26 01:40:59;;;;;;;3.35;3.05;;;;;;;;;;4962061;28;20669;-62
2023/03/26 01:43:34;;;;;;;3.42;3.10;;;;;;;;;;4974548;28;20054;-63
2023/03/26 01:46:04;;;;;;;3.78;3.28;;;;;;;;;;4962770;28;20096;-62
2023/03/26 01:48:34;;;;;;;4.55;3.08;;;;;;;;;;4962134;28;21206;-62
2023/03/26 01:51:01;;;;;;;2.70;2.60;;;;;;;;;;4960905;28;20065;-62
2023/03/26 01:53:27;;;;;;;6.28;3.50;;;;;;;;;;4960376;28;20204;-63
2023/03/26 01:56:06;;;;;;;5.35;3.45;;;;;;;;;;4963600;28;20038;-64
2023/03/26 01:58:50;;;;;;;4.18;3.30;;;;;;;;;;4969236;28;20503;-64
2023/03/26 02:01:31;;;;;;;3.85;3.33;;;;;;;;;;4978455;28;20038;-61
2023/03/26 02:04:25;;;;;;;3.78;3.13;;;;;;;;;;4968482;28;20045;-61
2023/03/26 02:07:08;;;;;;;3.70;3.25;;;;;;;;;;4966669;28;20046;-64
2023/03/26 02:09:46;;;;;;;4.93;3.50;;;;;;;;;;4973996;28;20134;-64
2023/03/26 02:12:16;;;;;;;3.35;3.10;;;;;;;;;;4966458;28;20039;-62
2023/03/26 02:14:42;;;;;;;3.33;3.08;;;;;;;;;;4965594;28;20034;-64
2023/03/26 02:17:09;;;;;;;4.07;2.95;;;;;;;;;;4964624;28;20107;-64
2023/03/26 02:19:40;;;;;;;3.33;3.00;;;;;;;;;;4966107;28;20037;-66
2023/03/26 02:22:14;;;;;;;3.22;2.92;;;;;;;;;;4965162;28;20154;-64
2023/03/26 02:24:43;;;;;;;6.15;3.08;;;;;;;;;;4964111;28;20042;-62
2023/03/26 02:27:11;;;;;;;7.03;3.15;;;;;;;;;;4966191;28;20038;-62
2023/03/26 02:29:41;;;;;;;3.35;3.00;;;;;;;;;;4964381;28;20046;-62
2023/03/26 02:32:12;;;;;;;3.17;2.70;;;;;;;;;;4972963;28;20066;-64
2023/03/26 02:34:41;;;;;;;6.93;3.70;;;;;;;;;;4965475;28;20034;-64
2023/03/26 02:37:08;;;;;;;5.22;3.35;;;;;;;;;;4965097;28;20384;-63
2023/03/26 02:39:35;;;;;;;3.63;3.22;;;;;;;;;;4964147;28;20058;-62
2023/03/26 02:42:08;;;;;;;4.53;3.40;;;;;;;;;;4964536;28;20035;-60
2023/03/26 02:44:41;;;;;;;5.22;3.35;;;;;;;;;;4980942;28;20043;-62
2023/03/26 02:47:19;;;;;;;3.63;3.00;;;;;;;;;;4965768;28;20034;-62
2023/03/26 02:49:50;;;;;;;3.92;3.17;;;;;;;;;;4965420;28;20034;-62
2023/03/26 02:52:25;;;;;;;3.50;3.20;;;;;;;;;;4961372;28;20035;-64
2023/03/26 02:54:53;;;;;;;5.47;3.25;;;;;;;;;;4967279;28;20045;-64
2023/03/26 02:57:21;;;;;;;5.55;3.22;;;;;;;;;;4978941;28;20818;-64
2023/03/26 03:00:13;;;;;;;7.28;3.08;;;;;;;;;;4961346;28;20049;-64
2023/03/26 03:02:48;;;;;;;6.35;3.35;;;;;;;;;;4964040;28;20042;-63
2023/03/26 03:05:30;;;;;;;3.08;2.88;;;;;;;;;;4964485;28;20034;-62
2023/03/26 03:08:17;;;;;;;5.70;3.00;;;;;;;;;;4964092;28;20106;-64
2023/03/26 03:11:01;;;;;;;6.07;3.10;;;;;;;;;;4961077;28;20057;-62
2023/03/26 03:13:45;;;;;;;4.03;3.03;;;;;;;;;;4962980;28;20035;-64
2023/03/26 03:16:16;;;;;;;6.22;3.10;;;;;;;;;;4979736;28;20041;-64
2023/03/26 03:18:41;;;;;;;3.53;3.20;;;;;;;;;;4963221;28;20093;-64
2023/03/26 03:21:08;;;;;;;5.15;2.75;;;;;;;;;;4963503;28;20045;-62
2023/03/26 03:23:33;;;;;;;7.50;3.42;;;;;;;;;;4964731;28;20031;-64
2023/03/26 03:26:14;;;;;;;5.43;3.25;;;;;;;;;;4959953;28;20407;-63
2023/03/26 03:28:41;;;;;;;4.93;3.15;;;;;;;;;;4961152;28;20070;-64
2023/03/26 03:31:07;;;;;;;10.02;3.65;;;;;;;;;;4964607;28;20062;-64
2023/03/26 03:33:34;;;;;;;6.78;3.47;;;;;;;;;;4963077;28;20065;-64
2023/03/26 03:36:00;;;;;;;4.35;3.67;;;;;;;;;;4961808;28;20477;-63
2023/03/26 03:38:26;;;;;;;4.95;3.25;;;;;;;;;;4977717;28;20049;-62
2023/03/26 03:40:54;;;;;;;6.13;3.10;;;;;;;;;;4963418;28;20041;-64
2023/03/26 03:43:21;;;;;;;3.10;2.85;;;;;;;;;;4978976;28;20105;-63
2023/03/26 03:46:00;;;;;;;4.97;3.00;;;;;;;;;;4961229;28;20039;-63
2023/03/26 03:48:48;;;;;;;5.90;3.22;;;;;;;;;;4963014;28;20035;-63
2023/03/26 03:51:18;;;;;;;6.68;3.22;;;;;;;;;;4963109;28;20465;-63
2023/03/26 03:53:54;;;;;;;4.63;2.90;;;;;;;;;;4962828;28;20045;-63
2023/03/26 03:56:39;;;;;;;6.28;3.22;;;;;;;;;;4962244;28;20125;-64
2023/03/26 03:59:24;;;;;;;3.72;3.22;;;;;;;;;;4962717;28;20058;-64
2023/03/26 04:01:49;;;;;;;3.90;3.05;;;;;;;;;;4967763;28;20030;-63
2023/03/26 04:04:31;;;;;;;3.10;2.90;;;;;;;;;;4960810;28;21069;-63
2023/03/26 04:07:04;;;;;;;5.07;3.15;;;;;;;;;;4962860;28;20043;-63
2023/03/26 04:09:44;;;;;;;3.45;3.15;;;;;;;;;;4962402;28;20041;-63
2023/03/26 04:12:15;;;;;;;3.47;3.00;;;;;;;;;;4960694;28;20039;-63
2023/03/26 04:14:46;;;;;;;4.22;3.28;;;;;;;;;;4962769;28;20097;-63
2023/03/26 04:17:14;;;;;;;8.75;3.33;;;;;;;;;;4962373;28;20117;-63
2023/03/26 04:19:42;;;;;;;4.85;3.00;;;;;;;;;;4978290;28;20037;-62
2023/03/26 04:22:10;;;;;;;4.53;2.80;;;;;;;;;;4976519;28;20034;-63
2023/03/26 04:24:48;;;;;;;4.93;3.20;;;;;;;;;;4972352;28;20039;-63
2023/03/26 04:27:42;;;;;;;3.95;3.15;;;;;;;;;;4962801;28;20046;-63
2023/03/26 04:30:19;;;;;;;3.75;3.45;;;;;;;;;;4960036;28;20122;-63
2023/03/26 04:32:48;;;;;;;3.90;2.78;;;;;;;;;;4956182;28;20043;-63
2023/03/26 04:35:15;;;;;;;2.72;2.63;;;;;;;;;;4977932;28;20041;-63
2023/03/26 04:37:45;;;;;;;3.72;2.92;;;;;;;;;;4962298;28;20041;-64
2023/03/26 04:40:19;;;;;;;8.45;4.20;;;;;;;;;;4959544;28;20042;-63
2023/03/26 04:43:20;;;;;;;54.83;33.03;;;;;;;;;;4937604;29;20578;-63
2023/03/26 04:46:10;;;;;;;9.35;8.40;;;;;;;;;;4961559;28;20058;-63
2023/03/26 04:48:44;;;;;;;5.63;3.90;;;;;;;;;;4960955;28;20031;-63
2023/03/26 04:51:20;;;;;;;4.45;4.03;;;;;;;;;;4977495;28;20621;-63
2023/03/26 04:53:52;;;;;;;5.80;3.03;;;;;;;;;;4962358;28;20037;-62
2023/03/26 04:56:57;;;;;;;3.70;3.42;;;;;;;;;;4972295;28;20714;-64
2023/03/26 04:59:46;;;;;;;13.18;6.75;;;;;;;;;;4957870;28;20109;-63
2023/03/26 05:02:13;;;;;;;13.43;9.85;;;;;;;;;;4978140;28;20487;-65
2023/03/26 05:04:49;;;;;;;5.38;3.40;;;;;;;;;;4962094;28;20897;-65
2023/03/26 05:07:19;;;;;;;4.15;3.78;;;;;;;;;;4980122;28;20047;-65
2023/03/26 05:09:50;;;;;;;7.63;4.07;;;;;;;;;;4976832;28;20376;-65
2023/03/26 05:12:33;;;;;;;6.82;3.25;;;;;;;;;;4961454;28;20070;-65
2023/03/26 05:15:06;;;;;;;6.82;3.42;;;;;;;;;;4962218;28;20053;-64
2023/03/26 05:17:48;;;;;;;4.90;3.30;;;;;;;;;;4960944;28;20565;-64
2023/03/26 05:20:29;;;;;;;7.25;3.30;;;;;;;;;;4976120;28;20042;-65
2023/03/26 05:22:55;;;;;;;5.25;3.95;;;;;;;;;;4961550;28;20077;-65
2023/03/26 05:25:29;;;;;;;3.20;3.00;;;;;;;;;;4974988;28;20042;-65
2023/03/26 05:27:55;;;;;;;3.72;3.35;;;;;;;;;;4960947;28;20074;-64
2023/03/26 05:30:25;;;;;;;;;;;;;;;;;;4974167;28;20380;-64
2023/03/26 05:32:55;;;;;;;3.42;3.13;;;;;;;;;;4961516;28;19926;-65
2023/03/26 05:35:26;;;;;;;14.55;7.80;;;;;;;;;;4975363;28;20090;-65
2023/03/26 05:37:52;;;;;;;3.42;3.13;;;;;;;;;;4965839;28;20035;-65
2023/03/26 05:40:21;;;;;;;6.85;3.25;;;;;;;;;;4966384;28;20045;-65
2023/03/26 05:42:58;;;;;;;4.07;3.10;;;;;;;;;;4975211;28;20038;-66
2023/03/26 05:45:36;;;;;;;4.45;3.55;;;;;;;;;;4964690;28;20708;-66
2023/03/26 05:48:22;;;;;;;3.75;3.45;;;;;;;;;;4964616;28;20503;-63
2023/03/26 05:50:49;;;;;;;3.63;3.25;;;;;;;;;;4963386;28;20664;-64
2023/03/26 05:53:17;;;;;;;3.38;3.08;;;;;;;;;;4965342;28;20034;-64
2023/03/26 05:56:01;;;;;;;4.03;3.30;;;;;;;;;;4963545;28;20038;-66
2023/03/26 05:58:34;;;;;;;3.47;3.15;;;;;;;;;;4965838;28;20043;-63
2023/03/26 06:01:18;;;;;;;4.30;2.97;;;;;;;;;;4961899;28;20101;-65
2023/03/26 06:04:02;;;;;;;4.00;3.60;;;;;;;;;;4965158;28;20118;-65
2023/03/26 06:06:34;;;;;;;7.75;3.53;;;;;;;;;;4964630;28;20145;-65
2023/03/26 06:09:00;;;;;;;7.68;4.15;;;;;;;;;;4967806;28;20506;-66
2023/03/26 06:11:26;;;;;;;7.00;3.70;;;;;;;;;;4964140;28;20039;-65
2023/03/26 06:13:52;;;;;;;3.80;3.10;;;;;;;;;;4983977;28;20069;-65
2023/03/26 06:16:17;;;;;;;5.80;3.65;;;;;;;;;;4964442;28;20039;-65
2023/03/26 06:18:50;;;;;;;4.22;3.28;;;;;;;;;;4964602;28;20030;-65
2023/03/26 06:21:27;;;;;;;5.20;3.10;;;;;;;;;;4969782;28;20054;-66
2023/03/26 06:24:01;;;;;;;3.40;3.20;;;;;;;;;;4981893;28;20487;-65
2023/03/26 06:26:41;;;;;;;3.65;3.22;;;;;;;;;;4961862;28;20074;-65
2023/03/26 06:29:19;;;;;;;7.63;3.42;;;;;;;;;;4964597;28;20055;-65
2023/03/26 06:32:10;;;;;;;5.88;3.38;;;;;;;;;;4981080;28;20058;-65
2023/03/26 06:34:43;;;;;;;3.30;3.10;;;;;;;;;;4964824;28;20082;-65
2023/03/26 06:37:09;;;;;;;6.30;3.55;;;;;;;;;;4962355;28;20043;-65
2023/03/26 06:39:35;;;;;;;11.85;5.38;;;;;;;;;;4966758;28;20465;-65
2023/03/26 06:42:26;;;;;;;3.33;3.03;;;;;;;;;;4967485;28;20055;-66
2023/03/26 06:45:12;;;;;;;4.65;3.45;;;;;;;;;;4980462;28;20041;-65
2023/03/26 06:48:10;;;;;;;3.88;3.45;;;;;;;;;;4954055;28;20058;-65
2023/03/26 06:50:47;;;;;;;8.85;4.28;;;;;;;;;;4967755;28;20130;-66
2023/03/26 06:53:31;;;;;;;5.40;3.65;;;;;;;;;;4963375;28;20490;-66
2023/03/26 06:56:16;;;;;;;3.42;3.00;;;;;;;;;;4967138;28;20246;-66
2023/03/26 06:58:58;;;;;;;6.05;3.47;;;;;;;;;;4965672;28;20043;-65
2023/03/26 07:01:44;;;;;;;4.65;3.30;;;;;;;;;;4962756;28;20054;-66
2023/03/26 07:04:28;;;;;;;10.23;3.50;;;;;;;;;;4964203;28;20042;-66
2023/03/26 07:07:31;;;;;;;7.75;3.63;;;;;;;;;;4990727;28;20053;-65
2023/03/26 07:10:15;;;;;;;6.97;3.70;;;;;;;;;;4962867;28;20055;-65
2023/03/26 07:13:08;;;;;;;4.30;3.85;;;;;;;;;;4969313;28;20034;-65
2023/03/26 07:15:52;;;;;;;4.07;3.40;;;;;;;;;;4966620;28;20900;-65
2023/03/26 07:18:34;;;;;;;4.45;3.40;;;;;;;;;;4965571;28;20051;-64
2023/03/26 07:21:02;;;;;;;6.78;3.53;;;;;;;;;;4962402;28;20038;-64
2023/03/26 07:23:30;;;;;;;6.75;3.55;;;;;;;;;;4963679;28;20494;-64
2023/03/26 07:26:17;;;;;;;7.63;3.67;;;;;;;;;;4964517;28;20465;-64
2023/03/26 07:29:06;;;;;;;;;;;;;;;;;;4961438;28;20089;-65
2023/03/26 07:32:04;;;;;;;11.48;4.13;;;;;;;;;;4962101;28;19953;-66
2023/03/26 07:34:59;;;;;;;6.03;4.07;;;;;;;;;;4961563;28;20448;-66
2023/03/26 07:37:58;;;;;;;4.75;3.42;;;;;;;;;;4960643;28;20038;-66
2023/03/26 07:40:57;;;;;;;3.45;3.15;;;;;;;;;;4961980;28;20510;-65
2023/03/26 07:43:54;;;;;;;4.00;3.58;;;;;;;;;;4962843;28;20121;-65
2023/03/26 07:46:40;;;;;;;3.85;3.55;;;;;;;;;;4977388;28;20113;-65
2023/03/26 07:49:34;;;;;;;10.10;4.25;;;;;;;;;;4958535;28;20045;-65
2023/03/26 07:52:20;;;;;;;5.35;3.40;;;;;;;;;;4958403;28;20050;-65
2023/03/26 07:55:14;;;;;;;9.05;4.05;;;;;;;;;;4961996;28;20042;-64
2023/03/26 07:58:19;;;;;;;5.30;3.75;;;;;;;;;;4961272;28;20813;-66
2023/03/26 08:01:42;;;;;;;5.13;3.53;;;;;;;;;;4959632;28;20074;-65
2023/03/26 08:04:33;;;;;;;3.45;3.05;;;;;;;;;;4974667;28;20038;-65
2023/03/26 08:07:20;;;;;;;6.60;4.35;;;;;;;;;;4964459;28;20735;-64
2023/03/26 08:10:26;;;;;;;3.53;3.22;;;;;;;;;;4956833;28;20053;-65
2023/03/26 08:13:23;;;;;;;4.38;3.47;;;;;;;;;;4962097;28;20073;-64
2023/03/26 08:15:59;;;;;;;6.07;4.35;;;;;;;;;;4962296;28;20498;-65
2023/03/26 08:18:53;;;;;;;5.93;3.95;;;;;;;;;;4960445;28;20034;-66
2023/03/26 08:21:21;;;;;;;5.15;3.55;;;;;;;;;;4962989;28;20049;-63
2023/03/26 08:23:59;;;;;;;20.60;5.65;;;;;;;;;;4963550;28;20030;-66
2023/03/26 08:26:31;;;;;;;16.73;6.50;;;;;;;;;;4963219;28;20043;-66
2023/03/26 08:29:06;;;;;;;13.38;7.13;;;;;;;;;;4961410;28;20122;-65
2023/03/26 08:31:38;;;;;;;7.65;4.43;;;;;;;;;;4968669;28;20679;-64
2023/03/26 08:34:05;;;;;;;9.32;4.63;;;;;;;;;;4964499;28;20514;-64
2023/03/26 08:36:31;;;;;;;6.40;4.50;;;;;;;;;;4959006;28;20170;-64
2023/03/26 08:38:58;;;;;;;7.25;4.50;;;;;;;;;;4963175;28;20038;-64
2023/03/26 08:41:36;;;;;;;7.03;4.30;;;;;;;;;;4963122;28;20038;-65
2023/03/26 08:44:36;;;;;;;6.97;4.20;;;;;;;;;;4962291;28;21105;-64
2023/03/26 08:47:27;;;;;;;5.13;4.15;;;;;;;;;;4960839;28;20086;-64
2023/03/26 08:50:19;;;;;;;8.70;4.47;;;;;;;;;;4961605;28;20125;-66
2023/03/26 08:53:03;;;;;;;7.20;4.00;;;;;;;;;;4959594;28;20038;-65
2023/03/26 08:55:52;;;;;;;8.43;4.95;;;;;;;;;;4962221;28;20473;-65
2023/03/26 08:58:36;;;;;;;11.20;4.40;;;;;;;;;;4958637;28;20125;-65
2023/03/26 09:01:20;;;;;;;6.95;4.03;;;;;;;;;;4961205;28;20138;-62
2023/03/26 09:04:19;;;;;;;9.80;4.70;;;;;;;;;;4964757;28;20034;-63
2023/03/26 09:07:05;;;;;;;;;;;;;;;;;;4963087;28;20042;-63
2023/03/26 09:09:46;;;;;;;5.47;4.70;;;;;;;;;;4957405;28;19922;-64
2023/03/26 09:12:18;;;;;;;6.47;4.50;;;;;;;;;;4958476;28;20438;-64
2023/03/26 09:15:15;;;;;;;4.65;4.00;;;;;;;;;;4962589;28;20648;-65
2023/03/26 09:18:16;;;;;;;7.65;5.13;;;;;;;;;;4960905;28;20031;-64
2023/03/26 09:21:00;;;;;;;9.68;4.55;;;;;;;;;;4963729;28;20047;-65
2023/03/26 09:23:56;;;;;;;4.70;4.30;;;;;;;;;;4964059;28;20097;-65
2023/03/26 09:26:26;;;;;;;6.32;4.60;;;;;;;;;;4962683;28;20043;-64
2023/03/26 09:29:31;;;;;;;6.60;4.70;;;;;;;;;;4958069;28;20074;-64
2023/03/26 09:32:14;;;;;;;6.82;4.30;;;;;;;;;;4976454;28;20074;-65
2023/03/26 09:35:08;;;;;;;8.77;4.70;;;;;;;;;;4965110;28;20073;-64
2023/03/26 09:37:45;;;;;;;5.90;4.57;;;;;;;;;;4962174;28;20074;-64
2023/03/26 09:40:17;;;;;;;5.97;4.88;;;;;;;;;;4958658;28;20569;-64
2023/03/26 09:42:50;;;;;;;5.18;4.68;;;;;;;;;;4959690;28;20027;-64
2023/03/26 09:45:53;;;;;;;5.18;4.78;;;;;;;;;;4957075;28;20043;-65
2023/03/26 09:48:22;;;;;;;4.68;4.28;;;;;;;;;;4976563;28;20043;-64
2023/03/26 09:51:29;;;;;;;7.13;4.75;;;;;;;;;;4963144;28;20572;-64
2023/03/26 09:54:19;;;;;;;4.05;3.75;;;;;;;;;;4960502;28;20074;-65
2023/03/26 09:57:02;;;;;;;7.60;4.18;;;;;;;;;;4975055;28;20046;-65
2023/03/26 09:59:33;;;;;;;4.43;4.03;;;;;;;;;;4962147;28;20168;-65
2023/03/26 10:02:17;;;;;;;3.83;3.53;;;;;;;;;;4980977;28;20640;-61
2023/03/26 10:05:03;;;;;;;3.75;3.45;;;;;;;;;;4966287;28;20038;-62
2023/03/26 10:07:47;;;;;;;3.72;3.42;;;;;;;;;;4965625;28;20039;-64
2023/03/26 10:10:42;;;;;;;3.75;3.38;;;;;;;;;;4961228;28;20415;-65
2023/03/26 10:13:24;;;;;;;3.70;3.40;;;;;;;;;;4962507;28;20100;-64
2023/03/26 10:16:21;;;;;;;3.85;3.55;;;;;;;;;;4961499;28;20711;-64
2023/03/26 10:19:06;;;;;;;4.07;3.42;;;;;;;;;;4962469;28;20067;-62
2023/03/26 10:21:35;;;;;;;3.60;3.30;;;;;;;;;;4961491;28;20093;-63
2023/03/26 10:24:17;;;;;;;4.20;3.65;;;;;;;;;;4964146;28;20048;-65
2023/03/26 10:26:56;;;;;;;3.95;3.60;;;;;;;;;;4982244;28;20042;-64
2023/03/26 10:30:13;;;;;;;4.13;3.80;;;;;;;;;;4967732;28;20089;-64
2023/03/26 10:33:11;;;;;;;5.15;3.92;;;;;;;;;;4950736;28;20035;-64
2023/03/26 10:35:55;;;;;;;5.20;4.70;;;;;;;;;;4950177;28;20085;-64
2023/03/26 10:38:42;;;;;;;4.93;3.50;;;;;;;;;;4957070;28;20525;-65
2023/03/26 10:41:23;;;;;;;3.60;3.35;;;;;;;;;;4932958;29;20040;-64
2023/03/26 10:44:14;;;;;;;3.60;3.30;;;;;;;;;;4949539;28;20039;-65
2023/03/26 10:46:57;;;;;;;5.50;3.88;;;;;;;;;;4951590;28;20981;-64
2023/03/26 10:49:32;;;;;;;3.83;3.28;;;;;;;;;;4954930;28;20047;-65
2023/03/26 10:52:02;;;;;;;3.65;3.30;;;;;;;;;;4937778;28;20081;-64
2023/03/26 10:54:56;;;;;;;4.03;3.65;;;;;;;;;;4942831;28;20062;-64
2023/03/26 10:57:38;;;;;;;3.60;3.38;;;;;;;;;;4948828;28;20046;-64
2023/03/26 11:00:14;;;;;;;3.60;3.30;;;;;;;;;;4944219;28;20043;-69
2023/03/26 11:03:26;;;;;;;3.60;3.30;;;;;;;;;;4952399;28;20039;-64
2023/03/26 11:06:16;;;;;;;3.40;3.10;;;;;;;;;;4874527;29;20555;-64
2023/03/26 11:09:01;;;;;;;3.88;3.28;;;;;;;;;;4899845;29;20160;-63
2023/03/26 11:11:54;;;;;;;3.28;3.08;;;;;;;;;;4910877;29;20070;-64
2023/03/26 11:14:27;;;;;;;3.72;3.50;;;;;;;;;;4907847;29;20099;-64
2023/03/26 11:17:14;;;;;;;3.75;3.53;;;;;;;;;;4910862;29;20059;-64
2023/03/26 11:19:51;;;;;;;3.80;3.50;;;;;;;;;;4911167;29;20534;-64
2023/03/26 11:22:19;;;;;;;3.90;3.63;;;;;;;;;;4911697;29;20048;-64
2023/03/26 11:25:08;;;;;;;4.20;3.72;;;;;;;;;;4902243;29;20137;-65
2023/03/26 11:27:52;;;;;;;3.67;3.40;;;;;;;;;;4909061;29;20067;-64
2023/03/26 11:30:22;;;;;;;4.00;3.50;;;;;;;;;;4907378;29;20643;-64
2023/03/26 11:32:53;;;;;;;3.70;3.40;;;;;;;;;;4906507;29;20119;-64
2023/03/26 11:35:29;;;;;;;3.80;3.60;;;;;;;;;;4908900;29;20079;-64
2023/03/26 11:37:57;;;;;;;4.00;3.55;;;;;;;;;;4879926;29;20055;-64
2023/03/26 11:40:33;;;;;;;4.05;3.72;;;;;;;;;;4904896;29;20051;-64
2023/03/26 11:43:03;;;;;;;3.47;3.17;;;;;;;;;;4947374;28;20178;-64
2023/03/26 11:45:34;;;;;;;4.50;3.80;;;;;;;;;;4962780;28;20602;-63
2023/03/26 11:48:13;;;;;;;4.82;3.80;;;;;;;;;;4964430;28;20038;-63
2023/03/26 11:50:51;;;;;;;3.63;3.33;;;;;;;;;;4966191;28;20149;-64
2023/03/26 11:53:20;;;;;;;6.20;3.60;;;;;;;;;;4961908;28;20043;-64
2023/03/26 11:56:02;;;;;;;;;;;;;;;;;;4964897;28;20121;-64
2023/03/26 11:58:41;;;;;;;3.60;3.40;;;;;;;;;;4977678;28;20020;-64
2023/03/26 12:01:21;;;;;;;4.40;2.80;;;;;;;;;;4961840;28;20038;-64
2023/03/26 12:04:12;;;;;;;4.95;3.70;;;;;;;;;;4961362;28;20132;-64
2023/03/26 12:06:38;;;;;;;3.85;3.65;;;;;;;;;;4965022;28;20745;-64
2023/03/26 12:09:16;;;;;;;3.10;2.90;;;;;;;;;;4962600;28;20404;-64
2023/03/26 12:11:43;;;;;;;3.67;3.38;;;;;;;;;;4967518;28;20034;-64
2023/03/26 12:14:17;;;;;;;3.45;3.15;;;;;;;;;;4968486;28;20033;-64
2023/03/26 12:17:07;;;;;;;3.10;2.90;;;;;;;;;;4963276;28;20081;-65
2023/03/26 12:19:37;;;;;;;3.30;3.00;;;;;;;;;;4965299;28;20094;-65
2023/03/26 12:22:02;;;;;;;3.83;3.53;;;;;;;;;;4960909;28;20469;-64
2023/03/26 12:24:35;;;;;;;3.33;3.03;;;;;;;;;;4965290;28;20051;-65
2023/03/26 12:27:22;;;;;;;3.63;3.42;;;;;;;;;;4959710;28;20038;-65
2023/03/26 12:29:58;;;;;;;3.28;3.08;;;;;;;;;;4964355;28;20125;-64
2023/03/26 12:32:38;;;;;;;3.38;3.17;;;;;;;;;;4954629;28;20143;-64
2023/03/26 12:35:06;;;;;;;3.42;3.22;;;;;;;;;;4957982;28;20042;-64
2023/03/26 12:37:37;;;;;;;3.83;3.53;;;;;;;;;;4958171;28;20437;-64
2023/03/26 12:40:35;;;;;;;3.40;3.10;;;;;;;;;;4958253;28;20157;-65
2023/03/26 12:43:06;;;;;;;3.03;2.92;;;;;;;;;;4954597;28;20046;-63
2023/03/26 12:45:41;;;;;;;3.97;3.33;;;;;;;;;;4962326;28;20046;-66
2023/03/26 12:48:11;;;;;;;3.70;3.40;;;;;;;;;;4957065;28;20045;-65
2023/03/26 12:50:59;;;;;;;4.00;3.00;;;;;;;;;;4959464;28;20046;-64
2023/03/26 12:53:46;;;;;;;4.78;3.20;;;;;;;;;;4957396;28;20034;-63
2023/03/26 12:56:41;;;;;;;3.58;3.28;;;;;;;;;;4962232;28;20517;-64
2023/03/26 12:59:22;;;;;;;5.78;3.30;;;;;;;;;;4946835;28;20081;-63
2023/03/26 13:02:13;;;;;;;5.00;3.40;;;;;;;;;;4957785;28;20035;-64
2023/03/26 13:05:10;;;;;;;3.90;3.60;;;;;;;;;;4961379;28;20038;-64
2023/03/26 13:08:01;;;;;;;3.75;3.45;;;;;;;;;;4961553;28;20043;-64
2023/03/26 13:10:45;;;;;;;3.78;3.40;;;;;;;;;;4956466;28;20032;-65
2023/03/26 13:13:38;;;;;;;4.13;3.15;;;;;;;;;;4958626;28;20031;-64
2023/03/26 13:16:20;;;;;;;3.38;3.10;;;;;;;;;;4977313;28;20053;-64
2023/03/26 13:18:57;;;;;;;3.35;3.22;;;;;;;;;;4955914;28;20043;-64
2023/03/26 13:21:37;;;;;;;4.25;3.88;;;;;;;;;;4962477;28;20046;-62
2023/03/26 13:24:29;;;;;;;3.75;3.30;;;;;;;;;;4958938;28;20037;-63
2023/03/26 13:27:07;;;;;;;4.57;3.00;;;;;;;;;;4962034;28;20030;-64
2023/03/26 13:29:39;;;;;;;5.00;3.80;;;;;;;;;;4958878;28;20035;-62
2023/03/26 13:32:11;;;;;;;3.83;3.42;;;;;;;;;;4954397;28;20114;-62
2023/03/26 13:34:57;;;;;;;5.47;3.20;;;;;;;;;;4958953;28;20046;-61
2023/03/26 13:37:33;;;;;;;4.50;3.70;;;;;;;;;;4956402;28;20168;-64
2023/03/26 13:40:25;;;;;;;3.53;3.22;;;;;;;;;;4956638;28;20051;-63
2023/03/26 13:43:08;;;;;;;4.00;3.65;;;;;;;;;;4961613;28;20043;-63
2023/03/26 13:46:05;;;;;;;6.45;3.17;;;;;;;;;;4964489;28;20043;-63
2023/03/26 13:48:40;;;;;;;3.35;3.15;;;;;;;;;;4961221;28;20035;-63
2023/03/26 13:51:23;;;;;;;3.80;3.13;;;;;;;;;;4957284;28;20041;-63
2023/03/26 13:53:59;;;;;;;4.00;3.55;;;;;;;;;;4959166;28;20042;-62
2023/03/26 13:56:33;;;;;;;3.50;3.20;;;;;;;;;;4961013;28;20043;-61
2023/03/26 13:59:03;;;;;;;3.17;2.97;;;;;;;;;;4963223;28;20061;-63
2023/03/26 14:01:42;;;;;;;3.58;2.92;;;;;;;;;;4962487;28;20039;-63
2023/03/26 14:04:18;;;;;;;3.42;3.13;;;;;;;;;;4964185;28;20117;-63
2023/03/26 14:06:56;;;;;;;3.30;3.10;;;;;;;;;;4961726;28;20510;-63
2023/03/26 14:09:30;;;;;;;5.78;4.65;;;;;;;;;;4961148;28;20123;-62
2023/03/26 14:11:56;;;;;;;4.05;3.65;;;;;;;;;;4962946;28;20038;-63
2023/03/26 14:14:58;;;;;;;3.85;3.47;;;;;;;;;;4959101;28;20051;-62
2023/03/26 14:17:46;;;;;;;5.60;3.30;;;;;;;;;;4957446;28;20530;-63
2023/03/26 14:20:24;;;;;;;7.05;3.88;;;;;;;;;;4962131;28;20280;-62
2023/03/26 14:23:14;;;;;;;3.47;3.25;;;;;;;;;;4962584;28;20034;-63
2023/03/26 14:25:55;;;;;;;3.38;3.17;;;;;;;;;;4960948;28;20039;-63
2023/03/26 14:28:52;;;;;;;6.80;3.83;;;;;;;;;;4967287;28;20039;-62
2023/03/26 14:31:37;;;;;;;14.18;7.57;;;;;;;;;;4960850;28;20049;-64
2023/03/26 14:34:41;;;;;;;4.63;3.65;;;;;;;;;;4963111;28;20101;-62
2023/03/26 14:37:29;;;;;;;3.78;3.50;;;;;;;;;;4960545;28;20910;-64
2023/03/26 14:40:21;;;;;;;4.15;3.40;;;;;;;;;;4962462;28;20038;-62
2023/03/26 14:43:20;;;;;;;4.07;3.67;;;;;;;;;;4961835;28;20038;-64
2023/03/26 14:46:10;;;;;;;4.50;4.05;;;;;;;;;;4959405;28;20030;-64
2023/03/26 14:49:30;;;;;;;4.03;3.72;;;;;;;;;;4958829;28;20065;-65
2023/03/26 14:52:19;;;;;;;4.47;3.38;;;;;;;;;;4962881;28;20046;-61
2023/03/26 14:54:49;;;;;;;4.60;4.10;;;;;;;;;;4979555;28;20047;-62
2023/03/26 14:58:05;;;;;;;3.90;3.60;;;;;;;;;;4961724;28;20447;-64
2023/03/26 15:00:46;;;;;;;3.67;3.38;;;;;;;;;;4904131;29;20467;-62
2023/03/26 15:03:28;;;;;;;3.58;3.38;;;;;;;;;;4958562;28;20050;-62
2023/03/26 15:06:18;;;;;;;3.47;3.25;;;;;;;;;;4956872;28;20043;-62
2023/03/26 15:09:02;;;;;;;4.10;3.60;;;;;;;;;;4963085;28;20051;-62
2023/03/26 15:11:38;;;;;;;4.47;3.20;;;;;;;;;;4963353;28;20039;-62
2023/03/26 15:14:31;;;;;;;3.85;3.42;;;;;;;;;;4965452;28;20030;-63
2023/03/26 15:17:39;;;;;;;3.80;3.60;;;;;;;;;;4962540;28;20128;-63
2023/03/26 15:21:02;;;;;;;5.57;3.60;;;;;;;;;;4957191;28;20042;-63
2023/03/26 15:23:36;;;;;;;3.70;3.40;;;;;;;;;;4939168;28;20043;-63
2023/03/26 15:26:30;;;;;;;3.70;3.40;;;;;;;;;;4936813;28;20070;-63
2023/03/26 15:29:34;;;;;;;3.88;3.50;;;;;;;;;;4936810;29;20043;-62
2023/03/26 15:32:30;;;;;;;4.70;4.10;;;;;;;;;;4939636;29;20034;-62
2023/03/26 15:35:26;;;;;;;3.70;3.50;;;;;;;;;;4941292;29;20074;-63
2023/03/26 15:38:30;;;;;;;4.85;3.80;;;;;;;;;;4931215;28;21301;-62
2023/03/26 15:41:27;;;;;;;3.90;3.50;;;;;;;;;;4876471;29;20112;-62
2023/03/26 15:43:58;;;;;;;3.58;3.35;;;;;;;;;;4878375;29;20406;-62
2023/03/26 15:46:51;;;;;;;4.30;3.90;;;;;;;;;;4878087;29;20828;-62
2023/03/26 15:49:40;;;;;;;4.28;3.63;;;;;;;;;;4879055;29;20048;-62
2023/03/26 15:52:08;;;;;;;3.60;3.40;;;;;;;;;;4878785;29;20458;-62
2023/03/26 15:55:08;;;;;;;3.60;3.30;;;;;;;;;;4894631;29;20499;-63
2023/03/26 15:57:43;;;;;;;3.30;3.20;;;;;;;;;;4888626;29;20127;-63